Terminal Aerodrome Forecast
Issued by NWS

Home | Current Version | Previous Version | Text Only | Print | Product List | Glossary On
Versions: 1 2 3 4 5 6 7 8 9 10 11 12 13 14 15 16 17 18 19 20 21 22 23 24
387
FTUS43 KBIS 080538
TAFMOT
TAF
KMOT 080538Z 0806/0906 30021G31KT 3SM BLSN BKN070
     FM081000 30019G29KT 6SM BLSN OVC070
     FM081200 29015G22KT P6SM BKN080
     FM090300 28008KT P6SM BKN030=

USA.gov is the U.S. government's official web portal to all federal, state and local government web resources and services.